sensor_id;sensor_type;location;lat;lon;timestamp;P1;durP1;ratioP1;P2;durP2;ratioP2
76115;SDS011;64847;45.778;12.802;2023-05-07T00:01:15;4.87;;;4.57;;
76115;SDS011;64847;45.778;12.802;2023-05-07T00:03:40;5.47;;;5.07;;
76115;SDS011;64847;45.778;12.802;2023-05-07T00:06:06;6.13;;;4.30;;
76115;SDS011;64847;45.778;12.802;2023-05-07T00:08:32;5.47;;;4.97;;
76115;SDS011;64847;45.778;12.802;2023-05-07T00:10:57;4.83;;;4.37;;
76115;SDS011;64847;45.778;12.802;2023-05-07T00:13:22;5.40;;;4.97;;
76115;SDS011;64847;45.778;12.802;2023-05-07T00:15:48;5.30;;;4.80;;
76115;SDS011;64847;45.778;12.802;2023-05-07T00:18:13;5.50;;;5.00;;
76115;SDS011;64847;45.778;12.802;2023-05-07T00:20:39;5.50;;;5.13;;
76115;SDS011;64847;45.778;12.802;2023-05-07T00:23:04;5.73;;;5.33;;
76115;SDS011;64847;45.778;12.802;2023-05-07T00:25:29;5.60;;;5.20;;
76115;SDS011;64847;45.778;12.802;2023-05-07T00:27:55;5.80;;;5.30;;
76115;SDS011;64847;45.778;12.802;2023-05-07T00:30:20;5.60;;;5.20;;
76115;SDS011;64847;45.778;12.802;2023-05-07T00:32:46;5.53;;;5.13;;
76115;SDS011;64847;45.778;12.802;2023-05-07T00:35:13;5.33;;;4.93;;
76115;SDS011;64847;45.778;12.802;2023-05-07T00:37:39;6.60;;;6.10;;
76115;SDS011;64847;45.778;12.802;2023-05-07T00:40:04;6.10;;;5.60;;
76115;SDS011;64847;45.778;12.802;2023-05-07T00:42:32;5.90;;;5.40;;
76115;SDS011;64847;45.778;12.802;2023-05-07T00:44:57;6.27;;;5.77;;
76115;SDS011;64847;45.778;12.802;2023-05-07T00:47:23;6.40;;;6.00;;
76115;SDS011;64847;45.778;12.802;2023-05-07T00:49:50;6.50;;;5.90;;
76115;SDS011;64847;45.778;12.802;2023-05-07T00:52:16;7.20;;;6.53;;
76115;SDS011;64847;45.778;12.802;2023-05-07T00:54:41;7.03;;;6.33;;
76115;SDS011;64847;45.778;12.802;2023-05-07T00:57:07;6.90;;;6.20;;
76115;SDS011;64847;45.778;12.802;2023-05-07T00:59:34;6.80;;;6.20;;
76115;SDS011;64847;45.778;12.802;2023-05-07T01:02:01;7.43;;;6.83;;
76115;SDS011;64847;45.778;12.802;2023-05-07T01:04:26;6.90;;;6.40;;
76115;SDS011;64847;45.778;12.802;2023-05-07T01:06:52;7.23;;;6.63;;
76115;SDS011;64847;45.778;12.802;2023-05-07T01:09:19;6.37;;;5.87;;
76115;SDS011;64847;45.778;12.802;2023-05-07T01:11:45;7.10;;;6.53;;
76115;SDS011;64847;45.778;12.802;2023-05-07T01:14:12;7.40;;;6.80;;
76115;SDS011;64847;45.778;12.802;2023-05-07T01:16:37;7.43;;;6.83;;
76115;SDS011;64847;45.778;12.802;2023-05-07T01:19:03;7.07;;;6.50;;
76115;SDS011;64847;45.778;12.802;2023-05-07T01:21:28;8.03;;;7.43;;
76115;SDS011;64847;45.778;12.802;2023-05-07T01:23:56;7.67;;;7.07;;
76115;SDS011;64847;45.778;12.802;2023-05-07T01:26:22;7.53;;;6.93;;
76115;SDS011;64847;45.778;12.802;2023-05-07T01:28:48;7.87;;;7.27;;
76115;SDS011;64847;45.778;12.802;2023-05-07T01:31:14;8.23;;;7.53;;
76115;SDS011;64847;45.778;12.802;2023-05-07T01:33:41;7.97;;;7.27;;
76115;SDS011;64847;45.778;12.802;2023-05-07T01:36:08;7.70;;;7.03;;
76115;SDS011;64847;45.778;12.802;2023-05-07T01:38:36;8.03;;;7.40;;
76115;SDS011;64847;45.778;12.802;2023-05-07T01:41:02;7.77;;;7.17;;
76115;SDS011;64847;45.778;12.802;2023-05-07T01:43:28;8.27;;;7.57;;
76115;SDS011;64847;45.778;12.802;2023-05-07T01:45:54;7.90;;;7.23;;
76115;SDS011;64847;45.778;12.802;2023-05-07T01:48:20;8.20;;;7.50;;
76115;SDS011;64847;45.778;12.802;2023-05-07T01:50:45;7.07;;;6.50;;
76115;SDS011;64847;45.778;12.802;2023-05-07T01:53:12;7.00;;;6.50;;
76115;SDS011;64847;45.778;12.802;2023-05-07T01:55:37;6.80;;;6.30;;
76115;SDS011;64847;45.778;12.802;2023-05-07T01:58:03;6.90;;;6.30;;
76115;SDS011;64847;45.778;12.802;2023-05-07T02:00:29;7.30;;;6.70;;
76115;SDS011;64847;45.778;12.802;2023-05-07T02:02:54;7.73;;;7.13;;
76115;SDS011;64847;45.778;12.802;2023-05-07T02:05:20;7.50;;;6.90;;
76115;SDS011;64847;45.778;12.802;2023-05-07T02:07:45;7.50;;;6.90;;
76115;SDS011;64847;45.778;12.802;2023-05-07T02:10:11;7.13;;;6.53;;
76115;SDS011;64847;45.778;12.802;2023-05-07T02:12:36;6.60;;;6.00;;
76115;SDS011;64847;45.778;12.802;2023-05-07T02:15:02;7.20;;;6.60;;
76115;SDS011;64847;45.778;12.802;2023-05-07T02:17:27;7.10;;;6.57;;
76115;SDS011;64847;45.778;12.802;2023-05-07T02:19:56;7.33;;;6.77;;
76115;SDS011;64847;45.778;12.802;2023-05-07T02:22:22;7.97;;;7.33;;
76115;SDS011;64847;45.778;12.802;2023-05-07T02:24:47;7.20;;;6.70;;
76115;SDS011;64847;45.778;12.802;2023-05-07T02:27:13;7.37;;;6.77;;
76115;SDS011;64847;45.778;12.802;2023-05-07T02:29:38;6.97;;;6.37;;
76115;SDS011;64847;45.778;12.802;2023-05-07T02:32:04;6.23;;;5.73;;
76115;SDS011;64847;45.778;12.802;2023-05-07T02:34:29;6.00;;;5.60;;
76115;SDS011;64847;45.778;12.802;2023-05-07T02:36:55;5.83;;;5.33;;
76115;SDS011;64847;45.778;12.802;2023-05-07T02:39:20;5.73;;;5.33;;
76115;SDS011;64847;45.778;12.802;2023-05-07T02:41:46;5.63;;;5.23;;
76115;SDS011;64847;45.778;12.802;2023-05-07T02:44:11;5.60;;;5.20;;
76115;SDS011;64847;45.778;12.802;2023-05-07T02:46:37;6.43;;;5.93;;
76115;SDS011;64847;45.778;12.802;2023-05-07T02:49:02;5.90;;;5.43;;
76115;SDS011;64847;45.778;12.802;2023-05-07T02:51:29;5.57;;;5.17;;
76115;SDS011;64847;45.778;12.802;2023-05-07T02:53:55;6.00;;;5.50;;
76115;SDS011;64847;45.778;12.802;2023-05-07T02:56:20;5.37;;;4.97;;
76115;SDS011;64847;45.778;12.802;2023-05-07T02:58:46;4.90;;;4.60;;
76115;SDS011;64847;45.778;12.802;2023-05-07T03:01:11;5.23;;;4.83;;
76115;SDS011;64847;45.778;12.802;2023-05-07T03:03:39;4.40;;;4.10;;
76115;SDS011;64847;45.778;12.802;2023-05-07T03:06:04;4.53;;;4.23;;
76115;SDS011;64847;45.778;12.802;2023-05-07T03:08:30;4.97;;;4.67;;
76115;SDS011;64847;45.778;12.802;2023-05-07T03:10:55;5.00;;;4.60;;
76115;SDS011;64847;45.778;12.802;2023-05-07T03:13:21;4.73;;;4.33;;
76115;SDS011;64847;45.778;12.802;2023-05-07T03:15:46;4.50;;;4.20;;
76115;SDS011;64847;45.778;12.802;2023-05-07T03:18:11;4.43;;;4.13;;
76115;SDS011;64847;45.778;12.802;2023-05-07T03:20:37;3.87;;;3.63;;
76115;SDS011;64847;45.778;12.802;2023-05-07T03:23:02;3.83;;;3.63;;
76115;SDS011;64847;45.778;12.802;2023-05-07T03:25:28;4.17;;;3.87;;
76115;SDS011;64847;45.778;12.802;2023-05-07T03:27:55;3.90;;;3.60;;
76115;SDS011;64847;45.778;12.802;2023-05-07T03:30:20;3.77;;;3.57;;
76115;SDS011;64847;45.778;12.802;2023-05-07T03:32:46;3.77;;;3.57;;
76115;SDS011;64847;45.778;12.802;2023-05-07T03:35:11;3.30;;;3.10;;
76115;SDS011;64847;45.778;12.802;2023-05-07T03:37:37;3.70;;;3.50;;
76115;SDS011;64847;45.778;12.802;2023-05-07T03:40:03;3.63;;;3.43;;
76115;SDS011;64847;45.778;12.802;2023-05-07T03:42:29;3.30;;;3.10;;
76115;SDS011;64847;45.778;12.802;2023-05-07T03:44:55;3.50;;;3.23;;
76115;SDS011;64847;45.778;12.802;2023-05-07T03:47:20;3.53;;;3.33;;
76115;SDS011;64847;45.778;12.802;2023-05-07T03:49:46;4.10;;;3.80;;
76115;SDS011;64847;45.778;12.802;2023-05-07T03:52:11;3.70;;;3.50;;
76115;SDS011;64847;45.778;12.802;2023-05-07T03:54:36;3.40;;;3.20;;
76115;SDS011;64847;45.778;12.802;2023-05-07T03:57:02;3.57;;;3.27;;
76115;SDS011;64847;45.778;12.802;2023-05-07T03:59:27;3.80;;;3.50;;
76115;SDS011;64847;45.778;12.802;2023-05-07T04:01:53;3.90;;;3.60;;
76115;SDS011;64847;45.778;12.802;2023-05-07T04:04:18;3.80;;;3.47;;
76115;SDS011;64847;45.778;12.802;2023-05-07T04:06:44;3.60;;;3.40;;
76115;SDS011;64847;45.778;12.802;2023-05-07T04:09:09;3.70;;;3.50;;
76115;SDS011;64847;45.778;12.802;2023-05-07T04:11:35;3.90;;;3.60;;
76115;SDS011;64847;45.778;12.802;2023-05-07T04:14:00;4.30;;;4.00;;
76115;SDS011;64847;45.778;12.802;2023-05-07T04:16:26;3.67;;;3.47;;
76115;SDS011;64847;45.778;12.802;2023-05-07T04:18:51;3.77;;;3.47;;
76115;SDS011;64847;45.778;12.802;2023-05-07T04:21:17;3.77;;;3.30;;
76115;SDS011;64847;45.778;12.802;2023-05-07T04:23:44;3.33;;;3.13;;
76115;SDS011;64847;45.778;12.802;2023-05-07T04:26:10;3.33;;;3.13;;
76115;SDS011;64847;45.778;12.802;2023-05-07T04:28:36;3.30;;;3.10;;
76115;SDS011;64847;45.778;12.802;2023-05-07T04:31:01;3.47;;;3.27;;
76115;SDS011;64847;45.778;12.802;2023-05-07T04:33:26;3.40;;;3.20;;
76115;SDS011;64847;45.778;12.802;2023-05-07T04:35:52;3.17;;;2.97;;
76115;SDS011;64847;45.778;12.802;2023-05-07T04:38:17;3.27;;;3.10;;
76115;SDS011;64847;45.778;12.802;2023-05-07T04:40:43;3.30;;;3.10;;
76115;SDS011;64847;45.778;12.802;2023-05-07T04:43:09;3.40;;;3.17;;
76115;SDS011;64847;45.778;12.802;2023-05-07T04:45:35;3.00;;;2.90;;
76115;SDS011;64847;45.778;12.802;2023-05-07T04:48:01;3.27;;;2.97;;
76115;SDS011;64847;45.778;12.802;2023-05-07T04:50:26;3.20;;;3.00;;
76115;SDS011;64847;45.778;12.802;2023-05-07T04:52:51;3.30;;;3.10;;
76115;SDS011;64847;45.778;12.802;2023-05-07T04:55:17;3.67;;;3.20;;
76115;SDS011;64847;45.778;12.802;2023-05-07T04:57:42;3.40;;;3.10;;
76115;SDS011;64847;45.778;12.802;2023-05-07T05:00:08;4.90;;;3.10;;
76115;SDS011;64847;45.778;12.802;2023-05-07T05:02:34;2.97;;;2.87;;
76115;SDS011;64847;45.778;12.802;2023-05-07T05:05:00;3.13;;;2.97;;
76115;SDS011;64847;45.778;12.802;2023-05-07T05:07:27;3.13;;;2.80;;
76115;SDS011;64847;45.778;12.802;2023-05-07T05:09:53;2.83;;;2.73;;
76115;SDS011;64847;45.778;12.802;2023-05-07T05:12:18;3.43;;;3.10;;
76115;SDS011;64847;45.778;12.802;2023-05-07T05:14:44;3.07;;;2.87;;
76115;SDS011;64847;45.778;12.802;2023-05-07T05:17:09;2.93;;;2.80;;
76115;SDS011;64847;45.778;12.802;2023-05-07T05:19:35;3.03;;;2.60;;
76115;SDS011;64847;45.778;12.802;2023-05-07T05:22:00;2.90;;;2.80;;
76115;SDS011;64847;45.778;12.802;2023-05-07T05:24:26;2.50;;;2.30;;
76115;SDS011;64847;45.778;12.802;2023-05-07T05:26:53;2.73;;;2.63;;
76115;SDS011;64847;45.778;12.802;2023-05-07T05:29:18;2.80;;;2.63;;
76115;SDS011;64847;45.778;12.802;2023-05-07T05:31:44;3.00;;;2.80;;
76115;SDS011;64847;45.778;12.802;2023-05-07T05:34:09;2.73;;;2.63;;
76115;SDS011;64847;45.778;12.802;2023-05-07T05:36:35;2.97;;;2.77;;
76115;SDS011;64847;45.778;12.802;2023-05-07T05:39:00;2.60;;;2.50;;
76115;SDS011;64847;45.778;12.802;2023-05-07T05:41:25;2.53;;;2.43;;
76115;SDS011;64847;45.778;12.802;2023-05-07T05:43:51;2.83;;;2.53;;
76115;SDS011;64847;45.778;12.802;2023-05-07T05:46:16;2.47;;;2.37;;
76115;SDS011;64847;45.778;12.802;2023-05-07T05:48:41;2.60;;;2.47;;
76115;SDS011;64847;45.778;12.802;2023-05-07T05:51:07;2.60;;;2.50;;
76115;SDS011;64847;45.778;12.802;2023-05-07T05:53:32;2.22;;;2.13;;
76115;SDS011;64847;45.778;12.802;2023-05-07T05:55:57;2.60;;;2.40;;
76115;SDS011;64847;45.778;12.802;2023-05-07T05:58:23;2.40;;;2.30;;
76115;SDS011;64847;45.778;12.802;2023-05-07T06:00:48;2.45;;;2.30;;
76115;SDS011;64847;45.778;12.802;2023-05-07T06:03:17;2.40;;;2.30;;
76115;SDS011;64847;45.778;12.802;2023-05-07T06:05:42;2.63;;;2.38;;
76115;SDS011;64847;45.778;12.802;2023-05-07T06:08:07;2.47;;;2.38;;
76115;SDS011;64847;45.778;12.802;2023-05-07T06:10:33;2.53;;;2.42;;
76115;SDS011;64847;45.778;12.802;2023-05-07T06:12:58;2.30;;;2.20;;
76115;SDS011;64847;45.778;12.802;2023-05-07T06:15:23;2.37;;;2.20;;
76115;SDS011;64847;45.778;12.802;2023-05-07T06:17:49;2.20;;;2.10;;
76115;SDS011;64847;45.778;12.802;2023-05-07T06:20:14;2.85;;;2.47;;
76115;SDS011;64847;45.778;12.802;2023-05-07T06:22:40;2.40;;;2.20;;
76115;SDS011;64847;45.778;12.802;2023-05-07T06:25:05;2.75;;;2.33;;
76115;SDS011;64847;45.778;12.802;2023-05-07T06:27:31;2.30;;;2.20;;
76115;SDS011;64847;45.778;12.802;2023-05-07T06:29:57;2.50;;;2.40;;
76115;SDS011;64847;45.778;12.802;2023-05-07T06:32:22;2.65;;;2.55;;
76115;SDS011;64847;45.778;12.802;2023-05-07T06:34:48;2.50;;;2.40;;
76115;SDS011;64847;45.778;12.802;2023-05-07T06:37:14;2.20;;;2.10;;
76115;SDS011;64847;45.778;12.802;2023-05-07T06:39:40;2.30;;;2.20;;
76115;SDS011;64847;45.778;12.802;2023-05-07T06:42:05;2.05;;;1.95;;
76115;SDS011;64847;45.778;12.802;2023-05-07T06:44:31;1.98;;;1.98;;
76115;SDS011;64847;45.778;12.802;2023-05-07T06:46:56;2.17;;;1.83;;
76115;SDS011;64847;45.778;12.802;2023-05-07T06:49:22;2.30;;;2.20;;
76115;SDS011;64847;45.778;12.802;2023-05-07T06:51:47;2.15;;;1.92;;
76115;SDS011;64847;45.778;12.802;2023-05-07T06:54:13;1.70;;;1.70;;
76115;SDS011;64847;45.778;12.802;2023-05-07T06:56:38;2.03;;;1.92;;
76115;SDS011;64847;45.778;12.802;2023-05-07T06:59:03;1.92;;;1.90;;
76115;SDS011;64847;45.778;12.802;2023-05-07T07:01:29;1.98;;;1.88;;
76115;SDS011;64847;45.778;12.802;2023-05-07T07:03:54;1.90;;;1.90;;
76115;SDS011;64847;45.778;12.802;2023-05-07T07:06:20;1.70;;;1.70;;
76115;SDS011;64847;45.778;12.802;2023-05-07T07:08:45;1.83;;;1.73;;
76115;SDS011;64847;45.778;12.802;2023-05-07T07:11:11;1.90;;;1.80;;
76115;SDS011;64847;45.778;12.802;2023-05-07T07:13:36;1.80;;;1.80;;
76115;SDS011;64847;45.778;12.802;2023-05-07T07:16:02;1.80;;;1.80;;
76115;SDS011;64847;45.778;12.802;2023-05-07T07:18:27;2.08;;;1.98;;
76115;SDS011;64847;45.778;12.802;2023-05-07T07:20:53;1.85;;;1.75;;
76115;SDS011;64847;45.778;12.802;2023-05-07T07:23:18;2.13;;;2.08;;
76115;SDS011;64847;45.778;12.802;2023-05-07T07:25:44;1.73;;;1.70;;
76115;SDS011;64847;45.778;12.802;2023-05-07T07:28:10;1.88;;;1.88;;
76115;SDS011;64847;45.778;12.802;2023-05-07T07:30:36;2.03;;;1.92;;
76115;SDS011;64847;45.778;12.802;2023-05-07T07:33:01;1.80;;;1.80;;
76115;SDS011;64847;45.778;12.802;2023-05-07T07:35:34;2.15;;;2.05;;
76115;SDS011;64847;45.778;12.802;2023-05-07T07:38:00;2.10;;;2.00;;
76115;SDS011;64847;45.778;12.802;2023-05-07T07:40:26;2.10;;;2.00;;
76115;SDS011;64847;45.778;12.802;2023-05-07T07:42:52;2.53;;;2.38;;
76115;SDS011;64847;45.778;12.802;2023-05-07T07:45:18;2.30;;;2.20;;
76115;SDS011;64847;45.778;12.802;2023-05-07T07:47:43;1.95;;;1.92;;
76115;SDS011;64847;45.778;12.802;2023-05-07T07:50:09;2.17;;;2.00;;
76115;SDS011;64847;45.778;12.802;2023-05-07T07:52:35;2.20;;;2.10;;
76115;SDS011;64847;45.778;12.802;2023-05-07T07:55:00;2.10;;;2.00;;
76115;SDS011;64847;45.778;12.802;2023-05-07T07:57:26;1.83;;;1.83;;
76115;SDS011;64847;45.778;12.802;2023-05-07T07:59:51;2.10;;;2.00;;
76115;SDS011;64847;45.778;12.802;2023-05-07T08:02:17;2.22;;;2.13;;
76115;SDS011;64847;45.778;12.802;2023-05-07T08:04:42;2.05;;;1.95;;
76115;SDS011;64847;45.778;12.802;2023-05-07T08:07:10;2.00;;;1.90;;
76115;SDS011;64847;45.778;12.802;2023-05-07T08:09:36;1.98;;;1.95;;
76115;SDS011;64847;45.778;12.802;2023-05-07T08:12:02;2.30;;;2.20;;
76115;SDS011;64847;45.778;12.802;2023-05-07T08:14:28;2.50;;;2.30;;
76115;SDS011;64847;45.778;12.802;2023-05-07T08:16:54;2.35;;;2.25;;
76115;SDS011;64847;45.778;12.802;2023-05-07T08:19:20;2.53;;;2.42;;
76115;SDS011;64847;45.778;12.802;2023-05-07T08:21:46;2.08;;;1.98;;
76115;SDS011;64847;45.778;12.802;2023-05-07T08:24:15;2.25;;;2.15;;
76115;SDS011;64847;45.778;12.802;2023-05-07T08:26:41;2.15;;;2.13;;
76115;SDS011;64847;45.778;12.802;2023-05-07T08:29:06;2.10;;;2.10;;
76115;SDS011;64847;45.778;12.802;2023-05-07T08:31:32;2.30;;;2.20;;
76115;SDS011;64847;45.778;12.802;2023-05-07T08:33:58;2.33;;;2.22;;
76115;SDS011;64847;45.778;12.802;2023-05-07T08:36:23;2.55;;;2.45;;
76115;SDS011;64847;45.778;12.802;2023-05-07T08:38:49;2.40;;;2.30;;
76115;SDS011;64847;45.778;12.802;2023-05-07T08:41:16;2.17;;;2.08;;
76115;SDS011;64847;45.778;12.802;2023-05-07T08:43:41;2.03;;;1.92;;
76115;SDS011;64847;45.778;12.802;2023-05-07T08:46:08;2.38;;;2.17;;
76115;SDS011;64847;45.778;12.802;2023-05-07T08:48:34;2.28;;;2.13;;
76115;SDS011;64847;45.778;12.802;2023-05-07T08:51:00;2.20;;;2.10;;
76115;SDS011;64847;45.778;12.802;2023-05-07T08:53:25;2.40;;;2.30;;
76115;SDS011;64847;45.778;12.802;2023-05-07T08:55:51;2.65;;;2.50;;
76115;SDS011;64847;45.778;12.802;2023-05-07T08:58:16;2.08;;;2.08;;
76115;SDS011;64847;45.778;12.802;2023-05-07T09:00:42;2.10;;;2.00;;
76115;SDS011;64847;45.778;12.802;2023-05-07T09:03:07;2.40;;;2.30;;
76115;SDS011;64847;45.778;12.802;2023-05-07T09:05:33;2.30;;;2.22;;
76115;SDS011;64847;45.778;12.802;2023-05-07T09:08:02;2.35;;;2.25;;
76115;SDS011;64847;45.778;12.802;2023-05-07T09:10:28;2.50;;;2.40;;
76115;SDS011;64847;45.778;12.802;2023-05-07T09:12:54;2.40;;;2.30;;
76115;SDS011;64847;45.778;12.802;2023-05-07T09:15:20;2.05;;;1.95;;
76115;SDS011;64847;45.778;12.802;2023-05-07T09:17:45;2.25;;;2.15;;
76115;SDS011;64847;45.778;12.802;2023-05-07T09:20:11;2.10;;;2.10;;
76115;SDS011;64847;45.778;12.802;2023-05-07T09:22:37;2.38;;;2.20;;
76115;SDS011;64847;45.778;12.802;2023-05-07T09:25:03;2.58;;;2.47;;
76115;SDS011;64847;45.778;12.802;2023-05-07T09:27:29;2.55;;;2.45;;
76115;SDS011;64847;45.778;12.802;2023-05-07T09:29:55;2.30;;;2.20;;
76115;SDS011;64847;45.778;12.802;2023-05-07T09:32:20;2.35;;;2.25;;
76115;SDS011;64847;45.778;12.802;2023-05-07T09:34:46;2.75;;;2.53;;
76115;SDS011;64847;45.778;12.802;2023-05-07T09:37:12;2.50;;;2.40;;
76115;SDS011;64847;45.778;12.802;2023-05-07T09:39:38;2.95;;;2.50;;
76115;SDS011;64847;45.778;12.802;2023-05-07T09:42:07;2.90;;;2.67;;
76115;SDS011;64847;45.778;12.802;2023-05-07T09:44:34;2.53;;;2.40;;
76115;SDS011;64847;45.778;12.802;2023-05-07T09:47:00;2.85;;;2.70;;
76115;SDS011;64847;45.778;12.802;2023-05-07T09:49:27;2.60;;;2.50;;
76115;SDS011;64847;45.778;12.802;2023-05-07T09:51:55;2.58;;;2.38;;
76115;SDS011;64847;45.778;12.802;2023-05-07T09:54:21;2.60;;;2.50;;
76115;SDS011;64847;45.778;12.802;2023-05-07T09:56:51;2.17;;;2.08;;
76115;SDS011;64847;45.778;12.802;2023-05-07T09:59:18;2.72;;;2.63;;
76115;SDS011;64847;45.778;12.802;2023-05-07T10:01:44;2.28;;;2.15;;
76115;SDS011;64847;45.778;12.802;2023-05-07T10:04:10;2.28;;;2.22;;
76115;SDS011;64847;45.778;12.802;2023-05-07T10:06:35;2.55;;;2.42;;
76115;SDS011;64847;45.778;12.802;2023-05-07T10:09:02;2.70;;;2.60;;
76115;SDS011;64847;45.778;12.802;2023-05-07T10:11:30;2.63;;;2.42;;
76115;SDS011;64847;45.778;12.802;2023-05-07T10:13:58;2.40;;;2.30;;
76115;SDS011;64847;45.778;12.802;2023-05-07T10:16:23;2.42;;;2.33;;
76115;SDS011;64847;45.778;12.802;2023-05-07T10:18:50;2.25;;;2.17;;
76115;SDS011;64847;45.778;12.802;2023-05-07T10:21:17;2.53;;;2.42;;
76115;SDS011;64847;45.778;12.802;2023-05-07T10:23:50;2.40;;;2.20;;
76115;SDS011;64847;45.778;12.802;2023-05-07T10:26:17;2.58;;;2.47;;
76115;SDS011;64847;45.778;12.802;2023-05-07T10:28:45;2.70;;;2.50;;
76115;SDS011;64847;45.778;12.802;2023-05-07T10:33:45;2.75;;;2.58;;
76115;SDS011;64847;45.778;12.802;2023-05-07T10:36:12;2.72;;;2.60;;
76115;SDS011;64847;45.778;12.802;2023-05-07T10:38:37;2.75;;;2.65;;
76115;SDS011;64847;45.778;12.802;2023-05-07T10:41:04;2.72;;;2.63;;
76115;SDS011;64847;45.778;12.802;2023-05-07T10:43:43;2.50;;;2.40;;
76115;SDS011;64847;45.778;12.802;2023-05-07T10:48:58;2.75;;;2.65;;
76115;SDS011;64847;45.778;12.802;2023-05-07T10:51:27;2.60;;;2.50;;
76115;SDS011;64847;45.778;12.802;2023-05-07T11:04:31;3.00;;;2.90;;
76115;SDS011;64847;45.778;12.802;2023-05-07T11:15:12;3.00;;;2.88;;
76115;SDS011;64847;45.778;12.802;2023-05-07T11:17:53;3.10;;;2.80;;
76115;SDS011;64847;45.778;12.802;2023-05-07T11:20:20;3.20;;;3.00;;
76115;SDS011;64847;45.778;12.802;2023-05-07T11:22:46;2.90;;;2.80;;
76115;SDS011;64847;45.778;12.802;2023-05-07T11:25:17;2.63;;;2.53;;
76115;SDS011;64847;45.778;12.802;2023-05-07T11:27:43;2.80;;;2.65;;
76115;SDS011;64847;45.778;12.802;2023-05-07T11:30:09;2.60;;;2.50;;
76115;SDS011;64847;45.778;12.802;2023-05-07T11:32:35;3.25;;;2.92;;
76115;SDS011;64847;45.778;12.802;2023-05-07T11:35:01;2.90;;;2.70;;
76115;SDS011;64847;45.778;12.802;2023-05-07T11:37:27;2.53;;;2.42;;
76115;SDS011;64847;45.778;12.802;2023-05-07T11:42:39;2.88;;;2.78;;
76115;SDS011;64847;45.778;12.802;2023-05-07T11:45:06;2.65;;;2.55;;
76115;SDS011;64847;45.778;12.802;2023-05-07T11:47:32;2.83;;;2.72;;
76115;SDS011;64847;45.778;12.802;2023-05-07T11:50:02;3.10;;;2.92;;
76115;SDS011;64847;45.778;12.802;2023-05-07T11:52:29;3.25;;;3.05;;
76115;SDS011;64847;45.778;12.802;2023-05-07T11:54:56;2.92;;;2.72;;
76115;SDS011;64847;45.778;12.802;2023-05-07T11:57:26;3.13;;;2.92;;
76115;SDS011;64847;45.778;12.802;2023-05-07T11:59:58;3.13;;;2.83;;
76115;SDS011;64847;45.778;12.802;2023-05-07T12:02:26;2.90;;;2.80;;
76115;SDS011;64847;45.778;12.802;2023-05-07T12:04:53;3.47;;;3.28;;
76115;SDS011;64847;45.778;12.802;2023-05-07T12:07:19;3.38;;;3.10;;
76115;SDS011;64847;45.778;12.802;2023-05-07T12:09:45;2.97;;;2.88;;
76115;SDS011;64847;45.778;12.802;2023-05-07T12:12:11;2.97;;;2.88;;
76115;SDS011;64847;45.778;12.802;2023-05-07T12:14:41;3.00;;;2.80;;
76115;SDS011;64847;45.778;12.802;2023-05-07T12:17:08;4.15;;;3.85;;
76115;SDS011;64847;45.778;12.802;2023-05-07T12:19:34;4.65;;;4.35;;
76115;SDS011;64847;45.778;12.802;2023-05-07T12:22:02;4.43;;;4.22;;
76115;SDS011;64847;45.778;12.802;2023-05-07T12:24:27;3.42;;;3.22;;
76115;SDS011;64847;45.778;12.802;2023-05-07T12:26:53;4.07;;;3.72;;
76115;SDS011;64847;45.778;12.802;2023-05-07T12:29:22;4.25;;;4.00;;
76115;SDS011;64847;45.778;12.802;2023-05-07T12:31:48;4.57;;;4.28;;
76115;SDS011;64847;45.778;12.802;2023-05-07T12:34:14;3.40;;;3.28;;
76115;SDS011;64847;45.778;12.802;2023-05-07T12:36:40;3.97;;;3.72;;
76115;SDS011;64847;45.778;12.802;2023-05-07T12:39:06;3.78;;;3.58;;
76115;SDS011;64847;45.778;12.802;2023-05-07T12:41:35;4.28;;;3.85;;
76115;SDS011;64847;45.778;12.802;2023-05-07T12:44:21;3.65;;;3.45;;
76115;SDS011;64847;45.778;12.802;2023-05-07T12:46:48;3.80;;;3.58;;
76115;SDS011;64847;45.778;12.802;2023-05-07T12:49:13;3.97;;;3.75;;
76115;SDS011;64847;45.778;12.802;2023-05-07T12:51:39;4.15;;;3.85;;
76115;SDS011;64847;45.778;12.802;2023-05-07T12:54:04;4.20;;;3.97;;
76115;SDS011;64847;45.778;12.802;2023-05-07T12:56:35;3.95;;;3.70;;
76115;SDS011;64847;45.778;12.802;2023-05-07T12:59:01;3.60;;;3.40;;
76115;SDS011;64847;45.778;12.802;2023-05-07T13:01:29;3.75;;;3.55;;
76115;SDS011;64847;45.778;12.802;2023-05-07T13:03:56;3.13;;;3.03;;
76115;SDS011;64847;45.778;12.802;2023-05-07T13:06:25;4.00;;;3.70;;
76115;SDS011;64847;45.778;12.802;2023-05-07T13:08:51;3.38;;;3.08;;
76115;SDS011;64847;45.778;12.802;2023-05-07T13:11:16;3.88;;;3.67;;
76115;SDS011;64847;45.778;12.802;2023-05-07T13:13:42;4.05;;;3.75;;
76115;SDS011;64847;45.778;12.802;2023-05-07T13:16:08;3.90;;;3.70;;
76115;SDS011;64847;45.778;12.802;2023-05-07T13:18:34;4.10;;;3.75;;
76115;SDS011;64847;45.778;12.802;2023-05-07T13:21:00;4.47;;;4.18;;
76115;SDS011;64847;45.778;12.802;2023-05-07T13:23:26;4.03;;;3.83;;
76115;SDS011;64847;45.778;12.802;2023-05-07T13:25:52;3.70;;;3.50;;
76115;SDS011;64847;45.778;12.802;2023-05-07T13:28:19;3.78;;;3.47;;
76115;SDS011;64847;45.778;12.802;2023-05-07T13:30:45;4.57;;;4.18;;
76115;SDS011;64847;45.778;12.802;2023-05-07T13:33:11;4.03;;;3.83;;
76115;SDS011;64847;45.778;12.802;2023-05-07T13:35:36;4.43;;;4.07;;
76115;SDS011;64847;45.778;12.802;2023-05-07T13:38:02;4.28;;;3.97;;
76115;SDS011;64847;45.778;12.802;2023-05-07T13:40:28;4.38;;;4.07;;
76115;SDS011;64847;45.778;12.802;2023-05-07T13:42:53;4.13;;;3.83;;
76115;SDS011;64847;45.778;12.802;2023-05-07T13:45:21;4.15;;;3.95;;
76115;SDS011;64847;45.778;12.802;2023-05-07T13:47:46;4.30;;;4.00;;
76115;SDS011;64847;45.778;12.802;2023-05-07T13:50:14;4.13;;;3.78;;
76115;SDS011;64847;45.778;12.802;2023-05-07T13:52:40;3.92;;;3.63;;
76115;SDS011;64847;45.778;12.802;2023-05-07T13:55:08;3.90;;;3.70;;
76115;SDS011;64847;45.778;12.802;2023-05-07T13:57:34;3.75;;;3.55;;
76115;SDS011;64847;45.778;12.802;2023-05-07T13:59:59;3.53;;;3.42;;
76115;SDS011;64847;45.778;12.802;2023-05-07T14:02:24;3.40;;;3.20;;
76115;SDS011;64847;45.778;12.802;2023-05-07T14:04:50;3.30;;;3.10;;
76115;SDS011;64847;45.778;12.802;2023-05-07T14:07:15;3.40;;;3.30;;
76115;SDS011;64847;45.778;12.802;2023-05-07T14:09:41;3.17;;;2.97;;
76115;SDS011;64847;45.778;12.802;2023-05-07T14:12:06;2.92;;;2.83;;
76115;SDS011;64847;45.778;12.802;2023-05-07T14:14:32;3.28;;;3.13;;
76115;SDS011;64847;45.778;12.802;2023-05-07T14:16:57;3.33;;;3.20;;
76115;SDS011;64847;45.778;12.802;2023-05-07T14:19:22;3.33;;;3.03;;
76115;SDS011;64847;45.778;12.802;2023-05-07T14:21:48;3.53;;;3.33;;
76115;SDS011;64847;45.778;12.802;2023-05-07T14:24:14;3.67;;;3.47;;
76115;SDS011;64847;45.778;12.802;2023-05-07T14:26:39;3.72;;;3.33;;
76115;SDS011;64847;45.778;12.802;2023-05-07T14:29:05;3.50;;;3.30;;
76115;SDS011;64847;45.778;12.802;2023-05-07T14:31:30;2.92;;;2.83;;
76115;SDS011;64847;45.778;12.802;2023-05-07T14:33:56;3.78;;;3.45;;
76115;SDS011;64847;45.778;12.802;2023-05-07T14:36:23;3.15;;;2.95;;
76115;SDS011;64847;45.778;12.802;2023-05-07T14:38:51;3.10;;;2.90;;
76115;SDS011;64847;45.778;12.802;2023-05-07T14:41:18;3.10;;;3.00;;
76115;SDS011;64847;45.778;12.802;2023-05-07T14:43:43;3.38;;;3.20;;
76115;SDS011;64847;45.778;12.802;2023-05-07T14:46:14;3.50;;;3.20;;
76115;SDS011;64847;45.778;12.802;2023-05-07T14:48:40;3.50;;;3.30;;
76115;SDS011;64847;45.778;12.802;2023-05-07T14:51:06;3.13;;;3.03;;
76115;SDS011;64847;45.778;12.802;2023-05-07T14:53:32;4.65;;;3.13;;